F/V Le Dolmen — FHMD — position and weather

sailwx.info

Track history (hours):
 
Tides and Currents Weather Stations Pressure Air Temp Water Temp Dewpoint Dewpoint Depression Visibility Wind Speed Wind Dir Waves Ship Positions

F/V Le Dolmen

Last reported at 2016-Jul-21 05:27 UTC. Time now 2016-Jul-26 04:38 UTC.
Position N 47°13' W 003°31'.

Length 18 m.

Type: Fishing. MMSI: 228374000.

Date/timePositionNaut miles runAvg speedWind from/ knotsBaromVisibWave heightAir tempDewpointWater temp
2016-Jul-21 05:27N 47°13' W 003°31'8 9.4
2016-Jul-21 04:33N 47°21' W 003°28'9 9.4
2016-Jul-21 03:34N 47°30' W 003°25'10 9.6
2016-Jul-21 02:34N 47°39' W 003°22'4 4.2
2016-Jul-21 01:33N 47°44' W 003°22'0 0.0
2016-Jul-21 00:33N 47°44' W 003°22'0 0.1
2016-Jul-20 23:33N 47°44' W 003°22'0 0.0
2016-Jul-20 22:33N 47°44' W 003°22'0 0.0
2016-Jul-20 21:33N 47°44' W 003°22'2 1.7
2016-Jul-20 20:34N 47°42' W 003°22'7 7.4
2016-Jul-20 19:34N 47°40' W 003°33'70 8.3
2016-Jul-20 11:03N 47°36' W 005°17'1 2.1
2016-Jul-20 10:33N 47°36' W 005°18'2 0.9
2016-Jul-20 08:33N 47°37' W 005°20'1 0.3
2016-Jul-20 06:34N 47°37' W 005°21'2 2.1
2016-Jul-20 05:25N 47°36' W 005°18'2 2.2
2016-Jul-20 04:33N 47°37' W 005°21'4 1.8
2016-Jul-20 02:34N 47°38' W 005°15'4 3.7
2016-Jul-20 01:34N 47°34' W 005°17'24 1.8
2016-Jul-19 12:27N 47°42' W 004°44'8 9.5
2016-Jul-19 11:33N 47°40' W 004°56'9 9.4
2016-Jul-19 10:33N 47°38' W 005°10'7 6.9
2016-Jul-19 09:34N 47°36' W 005°20'2 2.1
2016-Jul-19 08:34N 47°34' W 005°19'3 3.5
2016-Jul-19 07:33N 47°33' W 005°14'3 1.2
2016-Jul-19 04:33N 47°34' W 005°20'1 1.2
2016-Jul-19 03:33N 47°34' W 005°18'5 2.0
2016-Jul-19 01:13N 47°38' W 005°13'2 3.4
2016-Jul-19 00:34N 47°36' W 005°14'4 3.7
2016-Jul-18 23:33N 47°34' W 005°19'5 1.4
2016-Jul-18 20:05N 47°35' W 005°12'62 8.8
2016-Jul-18 13:04N 47°40' W 003°41'5 9.3
2016-Jul-18 12:33N 47°40' W 003°34'8 8.4
2016-Jul-18 11:33N 47°43' W 003°22'1 0.7
2016-Jul-18 10:33N 47°44' W 003°22'0 0.0
2016-Jul-18 09:33N 47°44' W 003°22'0 0.0
2016-Jul-18 08:29N 47°44' W 003°22'0 0.0
2016-Jul-18 07:33N 47°44' W 003°22'0 0.0
2016-Jul-18 06:33N 47°44' W 003°22'0 0.0
2016-Jul-16 08:29N 47°44' W 003°22'0 0.0
2016-Jul-16 07:34N 47°44' W 003°22'0 0.0
2016-Jul-16 06:33N 47°44' W 003°22'0 0.0
2016-Jul-16 04:34N 47°44' W 003°22'0 0.0
2016-Jul-16 03:33N 47°44' W 003°22'0 0.0
2016-Jul-16 02:34N 47°44' W 003°22'0 0.0
2016-Jul-16 01:33N 47°44' W 003°22'0 0.0
2016-Jul-16 00:33N 47°44' W 003°22'0 0.0
2016-Jul-15 23:34N 47°44' W 003°22'0 0.0
2016-Jul-15 22:34N 47°44' W 003°22'0 0.0
2016-Jul-15 21:34N 47°44' W 003°22'0 0.0
2016-Jul-15 20:34N 47°44' W 003°22'0 0.0
2016-Jul-15 19:34N 47°44' W 003°22'0 0.0
2016-Jul-15 18:34N 47°44' W 003°22'0 0.0
2016-Jul-15 17:33N 47°44' W 003°22'0 0.0
2016-Jul-15 16:34N 47°44' W 003°22'0 0.0
2016-Jul-15 15:34N 47°44' W 003°22'0 0.0
2016-Jul-15 14:33N 47°44' W 003°22'0 0.0
2016-Jul-15 13:34N 47°44' W 003°22'0 0.0
2016-Jul-15 12:33N 47°44' W 003°22'0 0.0
2016-Jul-15 11:34N 47°44' W 003°22'0 0.0
2016-Jul-15 10:33N 47°44' W 003°22'0 0.0
2016-Jul-15 09:33N 47°44' W 003°22'0 0.0
2016-Jul-15 08:34N 47°44' W 003°22'0 0.0
2016-Jul-15 07:34N 47°44' W 003°22'0 0.0
2016-Jul-15 06:33N 47°44' W 003°22'0 0.0
2016-Jul-15 05:33N 47°44' W 003°22'0 0.0
2016-Jul-15 04:34N 47°44' W 003°22'0 0.0
2016-Jul-15 03:33N 47°44' W 003°22'0 0.0
2016-Jul-15 02:34N 47°44' W 003°22'0 0.0
2016-Jul-15 01:34N 47°44' W 003°22'0 0.0
2016-Jul-15 00:34N 47°44' W 003°22'0 0.0
2016-Jul-14 23:34N 47°44' W 003°22'0 0.0
2016-Jul-14 22:34N 47°44' W 003°22'0 0.0
2016-Jul-14 21:34N 47°44' W 003°22'0 0.0
2016-Jul-14 20:34N 47°44' W 003°22'0 0.0
2016-Jul-14 19:33N 47°44' W 003°22'0 0.0
2016-Jul-14 18:34N 47°44' W 003°22'0 0.0
2016-Jul-14 17:33N 47°44' W 003°22'0 0.0
2016-Jul-14 16:34N 47°44' W 003°22'0 0.0
2016-Jul-14 15:33N 47°44' W 003°22'0 0.0
2016-Jul-14 14:33N 47°44' W 003°22'0 0.0
2016-Jul-14 13:34N 47°44' W 003°22'0 0.0
2016-Jul-14 12:33N 47°44' W 003°22'0 0.0
2016-Jul-14 11:33N 47°44' W 003°22'0 0.0
2016-Jul-14 10:33N 47°44' W 003°22'0 0.0
2016-Jul-14 09:33N 47°44' W 003°22'0 0.0
2016-Jul-14 08:33N 47°44' W 003°22'0 0.0
2016-Jul-14 07:33N 47°44' W 003°22'0 0.0
2016-Jul-14 06:34N 47°44' W 003°22'0 0.0
2016-Jul-14 05:33N 47°44' W 003°22'0 0.0
2016-Jul-14 04:33N 47°44' W 003°22'0 0.2
2016-Jul-14 03:33N 47°44' W 003°22'0 0.0
2016-Jul-14 02:33N 47°44' W 003°22'4 4.5
2016-Jul-14 01:33N 47°40' W 003°26'10 9.4
2016-Jul-14 00:28N 47°39' W 003°41'  
Track history (hours):
 
Tides and Currents Weather Stations Pressure Air Temp Water Temp Dewpoint Dewpoint Depression Visibility Wind Speed Wind Dir Waves Ship Positions

F/V Le Dolmen

Last reported at 2016-Jul-21 05:27 UTC. Time now 2016-Jul-26 04:38 UTC.
Position N 47°13' W 003°31'.

Length 18 m.

Type: Fishing. MMSI: 228374000.

Date/timePositionNaut miles runAvg speedWind from/ knotsBaromVisibWave heightAir tempDewpointWater temp
2016-Jul-21 05:27N 47°13' W 003°31'8 9.4
2016-Jul-21 04:33N 47°21' W 003°28'9 9.4
2016-Jul-21 03:34N 47°30' W 003°25'10 9.6
2016-Jul-21 02:34N 47°39' W 003°22'4 4.2
2016-Jul-21 01:33N 47°44' W 003°22'0 0.0
2016-Jul-21 00:33N 47°44' W 003°22'0 0.1
2016-Jul-20 23:33N 47°44' W 003°22'0 0.0
2016-Jul-20 22:33N 47°44' W 003°22'0 0.0
2016-Jul-20 21:33N 47°44' W 003°22'2 1.7
2016-Jul-20 20:34N 47°42' W 003°22'7 7.4
2016-Jul-20 19:34N 47°40' W 003°33'70 8.3
2016-Jul-20 11:03N 47°36' W 005°17'1 2.1
2016-Jul-20 10:33N 47°36' W 005°18'2 0.9
2016-Jul-20 08:33N 47°37' W 005°20'1 0.3
2016-Jul-20 06:34N 47°37' W 005°21'2 2.1
2016-Jul-20 05:25N 47°36' W 005°18'2 2.2
2016-Jul-20 04:33N 47°37' W 005°21'4 1.8
2016-Jul-20 02:34N 47°38' W 005°15'4 3.7
2016-Jul-20 01:34N 47°34' W 005°17'24 1.8
2016-Jul-19 12:27N 47°42' W 004°44'8 9.5
2016-Jul-19 11:33N 47°40' W 004°56'9 9.4
2016-Jul-19 10:33N 47°38' W 005°10'7 6.9
2016-Jul-19 09:34N 47°36' W 005°20'2 2.1
2016-Jul-19 08:34N 47°34' W 005°19'3 3.5
2016-Jul-19 07:33N 47°33' W 005°14'3 1.2
2016-Jul-19 04:33N 47°34' W 005°20'1 1.2
2016-Jul-19 03:33N 47°34' W 005°18'5 2.0
2016-Jul-19 01:13N 47°38' W 005°13'2 3.4
2016-Jul-19 00:34N 47°36' W 005°14'4 3.7
2016-Jul-18 23:33N 47°34' W 005°19'5 1.4
2016-Jul-18 20:05N 47°35' W 005°12'62 8.8
2016-Jul-18 13:04N 47°40' W 003°41'5 9.3
2016-Jul-18 12:33N 47°40' W 003°34'8 8.4
2016-Jul-18 11:33N 47°43' W 003°22'1 0.7
2016-Jul-18 10:33N 47°44' W 003°22'0 0.0
2016-Jul-18 09:33N 47°44' W 003°22'0 0.0
2016-Jul-18 08:29N 47°44' W 003°22'0 0.0
2016-Jul-18 07:33N 47°44' W 003°22'0 0.0
2016-Jul-18 06:33N 47°44' W 003°22'0 0.0
2016-Jul-16 08:29N 47°44' W 003°22'0 0.0
2016-Jul-16 07:34N 47°44' W 003°22'0 0.0
2016-Jul-16 06:33N 47°44' W 003°22'0 0.0
2016-Jul-16 04:34N 47°44' W 003°22'0 0.0
2016-Jul-16 03:33N 47°44' W 003°22'0 0.0
2016-Jul-16 02:34N 47°44' W 003°22'0 0.0
2016-Jul-16 01:33N 47°44' W 003°22'0 0.0
2016-Jul-16 00:33N 47°44' W 003°22'0 0.0
2016-Jul-15 23:34N 47°44' W 003°22'0 0.0
2016-Jul-15 22:34N 47°44' W 003°22'0 0.0
2016-Jul-15 21:34N 47°44' W 003°22'0 0.0
2016-Jul-15 20:34N 47°44' W 003°22'0 0.0
2016-Jul-15 19:34N 47°44' W 003°22'0 0.0
2016-Jul-15 18:34N 47°44' W 003°22'0 0.0
2016-Jul-15 17:33N 47°44' W 003°22'0 0.0
2016-Jul-15 16:34N 47°44' W 003°22'0 0.0
2016-Jul-15 15:34N 47°44' W 003°22'0 0.0
2016-Jul-15 14:33N 47°44' W 003°22'0 0.0
2016-Jul-15 13:34N 47°44' W 003°22'0 0.0
2016-Jul-15 12:33N 47°44' W 003°22'0 0.0
2016-Jul-15 11:34N 47°44' W 003°22'0 0.0
2016-Jul-15 10:33N 47°44' W 003°22'0 0.0
2016-Jul-15 09:33N 47°44' W 003°22'0 0.0
2016-Jul-15 08:34N 47°44' W 003°22'0 0.0
2016-Jul-15 07:34N 47°44' W 003°22'0 0.0
2016-Jul-15 06:33N 47°44' W 003°22'0 0.0
2016-Jul-15 05:33N 47°44' W 003°22'0 0.0
2016-Jul-15 04:34N 47°44' W 003°22'0 0.0
2016-Jul-15 03:33N 47°44' W 003°22'0 0.0
2016-Jul-15 02:34N 47°44' W 003°22'0 0.0
2016-Jul-15 01:34N 47°44' W 003°22'0 0.0
2016-Jul-15 00:34N 47°44' W 003°22'0 0.0
2016-Jul-14 23:34N 47°44' W 003°22'0 0.0
2016-Jul-14 22:34N 47°44' W 003°22'0 0.0
2016-Jul-14 21:34N 47°44' W 003°22'0 0.0
2016-Jul-14 20:34N 47°44' W 003°22'0 0.0
2016-Jul-14 19:33N 47°44' W 003°22'0 0.0
2016-Jul-14 18:34N 47°44' W 003°22'0 0.0
2016-Jul-14 17:33N 47°44' W 003°22'0 0.0
2016-Jul-14 16:34N 47°44' W 003°22'0 0.0
2016-Jul-14 15:33N 47°44' W 003°22'0 0.0
2016-Jul-14 14:33N 47°44' W 003°22'0 0.0
2016-Jul-14 13:34N 47°44' W 003°22'0 0.0
2016-Jul-14 12:33N 47°44' W 003°22'0 0.0
2016-Jul-14 11:33N 47°44' W 003°22'0 0.0
2016-Jul-14 10:33N 47°44' W 003°22'0 0.0
2016-Jul-14 09:33N 47°44' W 003°22'0 0.0
2016-Jul-14 08:33N 47°44' W 003°22'0 0.0
2016-Jul-14 07:33N 47°44' W 003°22'0 0.0
2016-Jul-14 06:34N 47°44' W 003°22'0 0.0
2016-Jul-14 05:33N 47°44' W 003°22'0 0.0
2016-Jul-14 04:33N 47°44' W 003°22'0 0.2
2016-Jul-14 03:33N 47°44' W 003°22'0 0.0
2016-Jul-14 02:33N 47°44' W 003°22'4 4.5
2016-Jul-14 01:33N 47°40' W 003°26'10 9.4
2016-Jul-14 00:28N 47°39' W 003°41'  

Dump ship's entire track history